sensor_id;sensor_type;location;lat;lon;timestamp;P1;durP1;ratioP1;P2;durP2;ratioP2
69748;SDS011;57019;52.354;6.584;2022-12-10T00:03:41;8.35;;;3.58;;
69748;SDS011;57019;52.354;6.584;2022-12-10T00:06:09;9.48;;;3.97;;
69748;SDS011;57019;52.354;6.584;2022-12-10T00:08:36;8.77;;;3.95;;
69748;SDS011;57019;52.354;6.584;2022-12-10T00:11:03;9.40;;;3.70;;
69748;SDS011;57019;52.354;6.584;2022-12-10T00:13:30;8.75;;;4.00;;
69748;SDS011;57019;52.354;6.584;2022-12-10T00:15:55;9.07;;;3.80;;
69748;SDS011;57019;52.354;6.584;2022-12-10T00:18:23;9.00;;;4.00;;
69748;SDS011;57019;52.354;6.584;2022-12-10T00:20:49;8.23;;;3.77;;
69748;SDS011;57019;52.354;6.584;2022-12-10T00:23:14;8.50;;;3.97;;
69748;SDS011;57019;52.354;6.584;2022-12-10T00:25:39;8.07;;;3.70;;
69748;SDS011;57019;52.354;6.584;2022-12-10T00:28:04;9.03;;;4.00;;
69748;SDS011;57019;52.354;6.584;2022-12-10T00:30:30;8.70;;;4.00;;
69748;SDS011;57019;52.354;6.584;2022-12-10T00:32:55;9.10;;;3.83;;
69748;SDS011;57019;52.354;6.584;2022-12-10T00:35:20;10.73;;;3.75;;
69748;SDS011;57019;52.354;6.584;2022-12-10T00:37:46;8.87;;;3.73;;
69748;SDS011;57019;52.354;6.584;2022-12-10T00:40:11;7.90;;;3.53;;
69748;SDS011;57019;52.354;6.584;2022-12-10T00:42:37;8.23;;;3.83;;
69748;SDS011;57019;52.354;6.584;2022-12-10T00:45:03;8.73;;;3.87;;
69748;SDS011;57019;52.354;6.584;2022-12-10T00:47:28;9.45;;;4.00;;
69748;SDS011;57019;52.354;6.584;2022-12-10T00:49:54;9.37;;;4.20;;
69748;SDS011;57019;52.354;6.584;2022-12-10T00:52:19;8.70;;;3.80;;
69748;SDS011;57019;52.354;6.584;2022-12-10T00:54:44;9.07;;;4.27;;
69748;SDS011;57019;52.354;6.584;2022-12-10T00:57:10;9.60;;;4.00;;
69748;SDS011;57019;52.354;6.584;2022-12-10T00:59:35;11.10;;;4.22;;
69748;SDS011;57019;52.354;6.584;2022-12-10T01:02:00;9.17;;;3.83;;
69748;SDS011;57019;52.354;6.584;2022-12-10T01:04:26;8.73;;;3.97;;
69748;SDS011;57019;52.354;6.584;2022-12-10T01:06:52;9.73;;;4.30;;
69748;SDS011;57019;52.354;6.584;2022-12-10T01:09:19;8.13;;;3.55;;
69748;SDS011;57019;52.354;6.584;2022-12-10T01:11:47;8.93;;;4.00;;
69748;SDS011;57019;52.354;6.584;2022-12-10T01:14:15;9.43;;;4.03;;
69748;SDS011;57019;52.354;6.584;2022-12-10T01:16:42;9.85;;;3.90;;
69748;SDS011;57019;52.354;6.584;2022-12-10T01:19:08;9.65;;;4.20;;
69748;SDS011;57019;52.354;6.584;2022-12-10T01:21:34;9.77;;;4.23;;
69748;SDS011;57019;52.354;6.584;2022-12-10T01:24:00;9.27;;;4.00;;
69748;SDS011;57019;52.354;6.584;2022-12-10T01:26:27;9.57;;;4.10;;
69748;SDS011;57019;52.354;6.584;2022-12-10T01:28:54;10.95;;;4.13;;
69748;SDS011;57019;52.354;6.584;2022-12-10T01:31:23;8.57;;;3.90;;
69748;SDS011;57019;52.354;6.584;2022-12-10T01:33:49;9.40;;;3.95;;
69748;SDS011;57019;52.354;6.584;2022-12-10T01:36:24;8.98;;;3.95;;
69748;SDS011;57019;52.354;6.584;2022-12-10T01:38:51;8.38;;;3.90;;
69748;SDS011;57019;52.354;6.584;2022-12-10T01:41:21;9.60;;;4.18;;
69748;SDS011;57019;52.354;6.584;2022-12-10T01:46:14;8.77;;;3.90;;
69748;SDS011;57019;52.354;6.584;2022-12-10T01:48:40;9.77;;;4.00;;
69748;SDS011;57019;52.354;6.584;2022-12-10T01:51:05;8.87;;;3.97;;
69748;SDS011;57019;52.354;6.584;2022-12-10T01:53:32;9.65;;;4.38;;
69748;SDS011;57019;52.354;6.584;2022-12-10T01:55:58;9.23;;;4.10;;
69748;SDS011;57019;52.354;6.584;2022-12-10T01:58:23;9.63;;;4.03;;
69748;SDS011;57019;52.354;6.584;2022-12-10T02:03:33;10.57;;;4.18;;
69748;SDS011;57019;52.354;6.584;2022-12-10T02:09:27;10.07;;;4.10;;
69748;SDS011;57019;52.354;6.584;2022-12-10T02:11:48;9.77;;;4.13;;
69748;SDS011;57019;52.354;6.584;2022-12-10T02:14:34;9.88;;;4.30;;
69748;SDS011;57019;52.354;6.584;2022-12-10T02:17:13;10.13;;;4.22;;
69748;SDS011;57019;52.354;6.584;2022-12-10T02:22:20;8.60;;;3.90;;
69748;SDS011;57019;52.354;6.584;2022-12-10T02:24:48;8.77;;;4.13;;
69748;SDS011;57019;52.354;6.584;2022-12-10T02:30:11;9.65;;;4.18;;
69748;SDS011;57019;52.354;6.584;2022-12-10T02:32:37;10.47;;;4.07;;
69748;SDS011;57019;52.354;6.584;2022-12-10T02:35:08;10.15;;;4.63;;
69748;SDS011;57019;52.354;6.584;2022-12-10T02:37:56;10.18;;;4.13;;
69748;SDS011;57019;52.354;6.584;2022-12-10T02:40:30;10.15;;;4.10;;
69748;SDS011;57019;52.354;6.584;2022-12-10T02:42:57;9.90;;;4.20;;
69748;SDS011;57019;52.354;6.584;2022-12-10T02:45:23;10.18;;;5.32;;
69748;SDS011;57019;52.354;6.584;2022-12-10T02:47:53;10.65;;;4.25;;
69748;SDS011;57019;52.354;6.584;2022-12-10T02:50:22;10.77;;;4.53;;
69748;SDS011;57019;52.354;6.584;2022-12-10T02:52:48;9.97;;;4.40;;
69748;SDS011;57019;52.354;6.584;2022-12-10T02:55:14;9.27;;;3.90;;
69748;SDS011;57019;52.354;6.584;2022-12-10T03:00:18;9.93;;;4.30;;
69748;SDS011;57019;52.354;6.584;2022-12-10T03:02:49;10.18;;;4.40;;
69748;SDS011;57019;52.354;6.584;2022-12-10T03:11:22;10.77;;;4.60;;
69748;SDS011;57019;52.354;6.584;2022-12-10T03:13:58;9.93;;;4.35;;
69748;SDS011;57019;52.354;6.584;2022-12-10T03:16:54;10.90;;;4.55;;
69748;SDS011;57019;52.354;6.584;2022-12-10T03:19:22;10.48;;;4.60;;
69748;SDS011;57019;52.354;6.584;2022-12-10T03:21:51;10.90;;;4.63;;
69748;SDS011;57019;52.354;6.584;2022-12-10T03:24:18;12.13;;;4.20;;
69748;SDS011;57019;52.354;6.584;2022-12-10T03:26:46;9.98;;;4.20;;
69748;SDS011;57019;52.354;6.584;2022-12-10T03:29:31;10.02;;;4.60;;
69748;SDS011;57019;52.354;6.584;2022-12-10T03:32:01;9.95;;;4.07;;
69748;SDS011;57019;52.354;6.584;2022-12-10T03:34:27;9.37;;;4.20;;
69748;SDS011;57019;52.354;6.584;2022-12-10T03:36:53;9.93;;;4.40;;
69748;SDS011;57019;52.354;6.584;2022-12-10T03:39:18;9.20;;;4.18;;
69748;SDS011;57019;52.354;6.584;2022-12-10T03:41:44;9.87;;;4.27;;
69748;SDS011;57019;52.354;6.584;2022-12-10T03:44:10;9.48;;;4.40;;
69748;SDS011;57019;52.354;6.584;2022-12-10T03:46:35;11.03;;;4.80;;
69748;SDS011;57019;52.354;6.584;2022-12-10T03:49:01;9.93;;;4.20;;
69748;SDS011;57019;52.354;6.584;2022-12-10T03:51:27;9.57;;;4.28;;
69748;SDS011;57019;52.354;6.584;2022-12-10T03:53:52;10.93;;;4.33;;
69748;SDS011;57019;52.354;6.584;2022-12-10T03:56:18;11.77;;;4.80;;
69748;SDS011;57019;52.354;6.584;2022-12-10T03:58:43;9.93;;;4.20;;
69748;SDS011;57019;52.354;6.584;2022-12-10T04:01:09;10.70;;;4.65;;
69748;SDS011;57019;52.354;6.584;2022-12-10T04:03:35;10.03;;;4.20;;
69748;SDS011;57019;52.354;6.584;2022-12-10T04:06:05;10.25;;;4.50;;
69748;SDS011;57019;52.354;6.584;2022-12-10T04:08:33;10.20;;;4.30;;
69748;SDS011;57019;52.354;6.584;2022-12-10T04:11:02;9.95;;;4.28;;
69748;SDS011;57019;52.354;6.584;2022-12-10T04:13:30;11.00;;;4.82;;
69748;SDS011;57019;52.354;6.584;2022-12-10T04:16:18;9.93;;;4.32;;
69748;SDS011;57019;52.354;6.584;2022-12-10T04:18:53;9.97;;;4.70;;
69748;SDS011;57019;52.354;6.584;2022-12-10T04:21:20;10.43;;;4.60;;
69748;SDS011;57019;52.354;6.584;2022-12-10T04:24:04;10.55;;;4.57;;
69748;SDS011;57019;52.354;6.584;2022-12-10T04:26:48;10.63;;;4.63;;
69748;SDS011;57019;52.354;6.584;2022-12-10T04:29:17;10.88;;;4.43;;
69748;SDS011;57019;52.354;6.584;2022-12-10T04:31:43;10.50;;;4.60;;
69748;SDS011;57019;52.354;6.584;2022-12-10T04:34:08;10.10;;;4.60;;
69748;SDS011;57019;52.354;6.584;2022-12-10T04:36:34;11.40;;;4.85;;
69748;SDS011;57019;52.354;6.584;2022-12-10T04:38:59;11.10;;;4.50;;
69748;SDS011;57019;52.354;6.584;2022-12-10T04:41:24;11.03;;;4.70;;
69748;SDS011;57019;52.354;6.584;2022-12-10T04:43:50;10.57;;;4.73;;
69748;SDS011;57019;52.354;6.584;2022-12-10T04:46:16;9.88;;;4.30;;
69748;SDS011;57019;52.354;6.584;2022-12-10T04:48:42;10.80;;;4.63;;
69748;SDS011;57019;52.354;6.584;2022-12-10T04:51:07;11.17;;;4.70;;
69748;SDS011;57019;52.354;6.584;2022-12-10T04:53:32;10.90;;;4.50;;
69748;SDS011;57019;52.354;6.584;2022-12-10T04:55:58;11.43;;;4.80;;
69748;SDS011;57019;52.354;6.584;2022-12-10T04:58:23;10.53;;;4.83;;
69748;SDS011;57019;52.354;6.584;2022-12-10T05:00:48;9.87;;;4.03;;
69748;SDS011;57019;52.354;6.584;2022-12-10T05:03:13;9.67;;;4.27;;
69748;SDS011;57019;52.354;6.584;2022-12-10T05:05:39;9.97;;;4.20;;
69748;SDS011;57019;52.354;6.584;2022-12-10T05:08:07;10.80;;;4.47;;
69748;SDS011;57019;52.354;6.584;2022-12-10T05:10:34;11.68;;;4.90;;
69748;SDS011;57019;52.354;6.584;2022-12-10T05:12:59;10.83;;;4.63;;
69748;SDS011;57019;52.354;6.584;2022-12-10T05:15:25;11.17;;;4.47;;
69748;SDS011;57019;52.354;6.584;2022-12-10T05:17:50;10.93;;;4.37;;
69748;SDS011;57019;52.354;6.584;2022-12-10T05:20:15;11.17;;;4.40;;
69748;SDS011;57019;52.354;6.584;2022-12-10T05:22:41;11.57;;;4.50;;
69748;SDS011;57019;52.354;6.584;2022-12-10T05:25:25;11.25;;;4.75;;
69748;SDS011;57019;52.354;6.584;2022-12-10T05:27:50;10.00;;;4.30;;
69748;SDS011;57019;52.354;6.584;2022-12-10T05:30:16;9.90;;;4.27;;
69748;SDS011;57019;52.354;6.584;2022-12-10T05:32:41;12.33;;;4.70;;
69748;SDS011;57019;52.354;6.584;2022-12-10T05:35:06;11.67;;;4.70;;
69748;SDS011;57019;52.354;6.584;2022-12-10T05:37:32;11.07;;;4.70;;
69748;SDS011;57019;52.354;6.584;2022-12-10T05:39:59;10.20;;;4.60;;
69748;SDS011;57019;52.354;6.584;2022-12-10T05:42:24;10.57;;;4.23;;
69748;SDS011;57019;52.354;6.584;2022-12-10T05:44:49;10.48;;;4.43;;
69748;SDS011;57019;52.354;6.584;2022-12-10T05:47:15;10.47;;;4.20;;
69748;SDS011;57019;52.354;6.584;2022-12-10T05:49:40;10.60;;;4.40;;
69748;SDS011;57019;52.354;6.584;2022-12-10T05:52:05;10.90;;;4.57;;
69748;SDS011;57019;52.354;6.584;2022-12-10T05:54:30;10.30;;;4.13;;
69748;SDS011;57019;52.354;6.584;2022-12-10T05:56:56;10.97;;;4.47;;
69748;SDS011;57019;52.354;6.584;2022-12-10T05:59:22;9.50;;;3.92;;
69748;SDS011;57019;52.354;6.584;2022-12-10T06:01:47;10.03;;;4.80;;
69748;SDS011;57019;52.354;6.584;2022-12-10T06:04:12;12.00;;;4.53;;
69748;SDS011;57019;52.354;6.584;2022-12-10T06:06:38;9.67;;;3.90;;
69748;SDS011;57019;52.354;6.584;2022-12-10T06:09:05;9.18;;;3.83;;
69748;SDS011;57019;52.354;6.584;2022-12-10T06:11:32;9.45;;;4.32;;
69748;SDS011;57019;52.354;6.584;2022-12-10T06:13:58;10.55;;;3.88;;
69748;SDS011;57019;52.354;6.584;2022-12-10T06:16:24;9.00;;;3.87;;
69748;SDS011;57019;52.354;6.584;2022-12-10T06:18:50;9.90;;;4.40;;
69748;SDS011;57019;52.354;6.584;2022-12-10T06:21:16;10.17;;;4.57;;
69748;SDS011;57019;52.354;6.584;2022-12-10T06:23:43;9.52;;;4.32;;
69748;SDS011;57019;52.354;6.584;2022-12-10T06:26:12;9.95;;;4.05;;
69748;SDS011;57019;52.354;6.584;2022-12-10T06:28:40;10.15;;;3.78;;
69748;SDS011;57019;52.354;6.584;2022-12-10T06:31:06;9.33;;;4.13;;
69748;SDS011;57019;52.354;6.584;2022-12-10T06:33:32;9.23;;;4.00;;
69748;SDS011;57019;52.354;6.584;2022-12-10T06:35:57;9.57;;;4.13;;
69748;SDS011;57019;52.354;6.584;2022-12-10T06:38:23;9.97;;;4.07;;
69748;SDS011;57019;52.354;6.584;2022-12-10T06:40:48;8.73;;;3.80;;
69748;SDS011;57019;52.354;6.584;2022-12-10T06:43:14;9.70;;;3.97;;
69748;SDS011;57019;52.354;6.584;2022-12-10T06:45:40;9.32;;;3.72;;
69748;SDS011;57019;52.354;6.584;2022-12-10T06:48:06;9.77;;;3.53;;
69748;SDS011;57019;52.354;6.584;2022-12-10T06:50:32;9.40;;;4.03;;
69748;SDS011;57019;52.354;6.584;2022-12-10T06:52:57;8.60;;;3.70;;
69748;SDS011;57019;52.354;6.584;2022-12-10T06:55:22;8.97;;;3.97;;
69748;SDS011;57019;52.354;6.584;2022-12-10T06:57:51;8.83;;;3.60;;
69748;SDS011;57019;52.354;6.584;2022-12-10T07:00:17;9.43;;;4.00;;
69748;SDS011;57019;52.354;6.584;2022-12-10T07:02:52;9.00;;;3.63;;
69748;SDS011;57019;52.354;6.584;2022-12-10T07:05:18;9.23;;;3.93;;
69748;SDS011;57019;52.354;6.584;2022-12-10T07:07:43;9.80;;;4.23;;
69748;SDS011;57019;52.354;6.584;2022-12-10T07:10:09;9.13;;;3.90;;
69748;SDS011;57019;52.354;6.584;2022-12-10T07:12:34;8.68;;;3.85;;
69748;SDS011;57019;52.354;6.584;2022-12-10T07:15:00;8.87;;;3.70;;
69748;SDS011;57019;52.354;6.584;2022-12-10T07:17:25;9.47;;;3.97;;
69748;SDS011;57019;52.354;6.584;2022-12-10T07:19:51;9.43;;;4.30;;
69748;SDS011;57019;52.354;6.584;2022-12-10T07:22:16;9.10;;;3.50;;
69748;SDS011;57019;52.354;6.584;2022-12-10T07:24:42;10.07;;;3.90;;
69748;SDS011;57019;52.354;6.584;2022-12-10T07:27:08;8.63;;;3.63;;
69748;SDS011;57019;52.354;6.584;2022-12-10T07:29:33;9.27;;;3.90;;
69748;SDS011;57019;52.354;6.584;2022-12-10T07:31:59;8.88;;;3.65;;
69748;SDS011;57019;52.354;6.584;2022-12-10T07:34:24;9.30;;;4.00;;
69748;SDS011;57019;52.354;6.584;2022-12-10T07:36:50;8.93;;;3.83;;
69748;SDS011;57019;52.354;6.584;2022-12-10T07:39:15;8.83;;;3.80;;
69748;SDS011;57019;52.354;6.584;2022-12-10T07:41:44;9.88;;;4.10;;
69748;SDS011;57019;52.354;6.584;2022-12-10T07:44:12;9.48;;;3.80;;
69748;SDS011;57019;52.354;6.584;2022-12-10T07:46:38;9.37;;;3.80;;
69748;SDS011;57019;52.354;6.584;2022-12-10T07:49:03;9.75;;;4.20;;
69748;SDS011;57019;52.354;6.584;2022-12-10T07:51:29;9.80;;;4.10;;
69748;SDS011;57019;52.354;6.584;2022-12-10T07:53:54;9.63;;;4.07;;
69748;SDS011;57019;52.354;6.584;2022-12-10T07:56:20;10.10;;;4.60;;
69748;SDS011;57019;52.354;6.584;2022-12-10T07:58:47;10.20;;;4.30;;
69748;SDS011;57019;52.354;6.584;2022-12-10T08:01:13;10.95;;;4.53;;
69748;SDS011;57019;52.354;6.584;2022-12-10T08:03:43;10.37;;;4.50;;
69748;SDS011;57019;52.354;6.584;2022-12-10T08:06:11;10.77;;;4.78;;
69748;SDS011;57019;52.354;6.584;2022-12-10T08:08:39;10.25;;;4.45;;
69748;SDS011;57019;52.354;6.584;2022-12-10T08:11:06;11.95;;;4.63;;
69748;SDS011;57019;52.354;6.584;2022-12-10T08:13:32;11.87;;;5.07;;
69748;SDS011;57019;52.354;6.584;2022-12-10T08:16:10;11.25;;;4.40;;
69748;SDS011;57019;52.354;6.584;2022-12-10T08:18:37;9.77;;;4.25;;
69748;SDS011;57019;52.354;6.584;2022-12-10T08:21:07;10.80;;;4.60;;
69748;SDS011;57019;52.354;6.584;2022-12-10T08:23:35;10.53;;;4.40;;
69748;SDS011;57019;52.354;6.584;2022-12-10T08:26:04;9.63;;;4.13;;
69748;SDS011;57019;52.354;6.584;2022-12-10T08:28:31;9.53;;;4.10;;
69748;SDS011;57019;52.354;6.584;2022-12-10T08:30:57;9.93;;;4.20;;
69748;SDS011;57019;52.354;6.584;2022-12-10T08:33:22;9.00;;;4.07;;
69748;SDS011;57019;52.354;6.584;2022-12-10T08:35:47;10.70;;;4.33;;
69748;SDS011;57019;52.354;6.584;2022-12-10T08:38:12;9.77;;;4.10;;
69748;SDS011;57019;52.354;6.584;2022-12-10T08:40:38;9.40;;;4.00;;
69748;SDS011;57019;52.354;6.584;2022-12-10T08:43:05;10.23;;;3.83;;
69748;SDS011;57019;52.354;6.584;2022-12-10T08:45:31;9.73;;;4.13;;
69748;SDS011;57019;52.354;6.584;2022-12-10T08:47:56;9.50;;;4.03;;
69748;SDS011;57019;52.354;6.584;2022-12-10T08:50:21;9.57;;;4.17;;
69748;SDS011;57019;52.354;6.584;2022-12-10T08:52:46;8.57;;;3.90;;
69748;SDS011;57019;52.354;6.584;2022-12-10T08:55:12;9.70;;;4.10;;
69748;SDS011;57019;52.354;6.584;2022-12-10T08:57:37;10.03;;;4.33;;
69748;SDS011;57019;52.354;6.584;2022-12-10T09:00:03;9.50;;;3.95;;
69748;SDS011;57019;52.354;6.584;2022-12-10T09:02:29;9.00;;;3.90;;
69748;SDS011;57019;52.354;6.584;2022-12-10T09:04:54;9.82;;;4.18;;
69748;SDS011;57019;52.354;6.584;2022-12-10T09:07:20;8.60;;;3.90;;
69748;SDS011;57019;52.354;6.584;2022-12-10T09:09:46;9.23;;;3.92;;
69748;SDS011;57019;52.354;6.584;2022-12-10T09:12:11;8.87;;;3.80;;
69748;SDS011;57019;52.354;6.584;2022-12-10T09:14:38;9.73;;;3.83;;
69748;SDS011;57019;52.354;6.584;2022-12-10T09:17:05;11.05;;;4.25;;
69748;SDS011;57019;52.354;6.584;2022-12-10T09:19:31;9.30;;;3.95;;
69748;SDS011;57019;52.354;6.584;2022-12-10T09:21:56;10.17;;;4.43;;
69748;SDS011;57019;52.354;6.584;2022-12-10T09:24:23;9.70;;;4.27;;
69748;SDS011;57019;52.354;6.584;2022-12-10T09:26:48;9.98;;;4.28;;
69748;SDS011;57019;52.354;6.584;2022-12-10T09:29:13;11.60;;;4.57;;
69748;SDS011;57019;52.354;6.584;2022-12-10T09:31:39;10.77;;;4.40;;
69748;SDS011;57019;52.354;6.584;2022-12-10T09:34:04;10.20;;;4.77;;
69748;SDS011;57019;52.354;6.584;2022-12-10T09:36:30;11.75;;;4.40;;
69748;SDS011;57019;52.354;6.584;2022-12-10T09:38:55;12.23;;;4.70;;
69748;SDS011;57019;52.354;6.584;2022-12-10T09:46:24;10.50;;;4.60;;
69748;SDS011;57019;52.354;6.584;2022-12-10T09:51:45;12.03;;;4.50;;
69748;SDS011;57019;52.354;6.584;2022-12-10T09:54:24;11.43;;;4.50;;
69748;SDS011;57019;52.354;6.584;2022-12-10T09:56:53;11.30;;;4.60;;
69748;SDS011;57019;52.354;6.584;2022-12-10T09:59:24;11.82;;;4.85;;
69748;SDS011;57019;52.354;6.584;2022-12-10T10:02:44;10.82;;;4.18;;
69748;SDS011;57019;52.354;6.584;2022-12-10T10:04:56;11.18;;;4.57;;
69748;SDS011;57019;52.354;6.584;2022-12-10T10:07:35;11.02;;;4.25;;
69748;SDS011;57019;52.354;6.584;2022-12-10T10:10:13;10.07;;;4.43;;
69748;SDS011;57019;52.354;6.584;2022-12-10T10:12:56;11.15;;;4.68;;
69748;SDS011;57019;52.354;6.584;2022-12-10T10:15:33;11.98;;;4.70;;
69748;SDS011;57019;52.354;6.584;2022-12-10T10:20:46;10.73;;;4.40;;
69748;SDS011;57019;52.354;6.584;2022-12-10T10:23:12;11.70;;;4.70;;
69748;SDS011;57019;52.354;6.584;2022-12-10T10:25:40;11.45;;;4.28;;
69748;SDS011;57019;52.354;6.584;2022-12-10T10:28:05;12.67;;;4.47;;
69748;SDS011;57019;52.354;6.584;2022-12-10T10:30:31;12.53;;;4.90;;
69748;SDS011;57019;52.354;6.584;2022-12-10T10:32:57;11.35;;;4.43;;
69748;SDS011;57019;52.354;6.584;2022-12-10T10:35:33;10.67;;;4.10;;
69748;SDS011;57019;52.354;6.584;2022-12-10T10:38:07;11.80;;;4.53;;
69748;SDS011;57019;52.354;6.584;2022-12-10T10:40:45;11.95;;;4.78;;
69748;SDS011;57019;52.354;6.584;2022-12-10T10:43:18;10.57;;;4.20;;
69748;SDS011;57019;52.354;6.584;2022-12-10T10:45:51;10.90;;;4.93;;
69748;SDS011;57019;52.354;6.584;2022-12-10T10:48:20;11.27;;;4.67;;
69748;SDS011;57019;52.354;6.584;2022-12-10T10:50:54;11.93;;;4.90;;
69748;SDS011;57019;52.354;6.584;2022-12-10T10:53:42;10.27;;;4.43;;
69748;SDS011;57019;52.354;6.584;2022-12-10T11:04:15;12.60;;;4.68;;
69748;SDS011;57019;52.354;6.584;2022-12-10T11:06:41;12.05;;;4.78;;
69748;SDS011;57019;52.354;6.584;2022-12-10T11:09:14;10.25;;;4.32;;
69748;SDS011;57019;52.354;6.584;2022-12-10T11:11:50;11.88;;;4.55;;
69748;SDS011;57019;52.354;6.584;2022-12-10T11:14:23;12.87;;;4.80;;
69748;SDS011;57019;52.354;6.584;2022-12-10T11:17:17;11.55;;;4.72;;
69748;SDS011;57019;52.354;6.584;2022-12-10T11:19:54;12.95;;;5.38;;
69748;SDS011;57019;52.354;6.584;2022-12-10T11:22:50;12.57;;;5.25;;
69748;SDS011;57019;52.354;6.584;2022-12-10T11:25:17;14.32;;;5.85;;
69748;SDS011;57019;52.354;6.584;2022-12-10T11:28:14;13.10;;;5.50;;
69748;SDS011;57019;52.354;6.584;2022-12-10T11:30:34;12.95;;;5.47;;
69748;SDS011;57019;52.354;6.584;2022-12-10T11:36:05;13.63;;;5.57;;
69748;SDS011;57019;52.354;6.584;2022-12-10T11:41:25;11.43;;;5.07;;
69748;SDS011;57019;52.354;6.584;2022-12-10T11:50:24;12.32;;;5.35;;
69748;SDS011;57019;52.354;6.584;2022-12-10T11:53:03;12.32;;;5.45;;
69748;SDS011;57019;52.354;6.584;2022-12-10T12:06:57;15.18;;;5.43;;
69748;SDS011;57019;52.354;6.584;2022-12-10T12:12:35;12.80;;;5.50;;
69748;SDS011;57019;52.354;6.584;2022-12-10T12:15:13;14.25;;;6.07;;
69748;SDS011;57019;52.354;6.584;2022-12-10T12:17:52;12.85;;;5.28;;
69748;SDS011;57019;52.354;6.584;2022-12-10T12:20:34;14.82;;;5.97;;
69748;SDS011;57019;52.354;6.584;2022-12-10T12:25:48;20.70;;;6.72;;
69748;SDS011;57019;52.354;6.584;2022-12-10T12:28:22;19.20;;;6.35;;
69748;SDS011;57019;52.354;6.584;2022-12-10T12:31:03;21.17;;;6.85;;
69748;SDS011;57019;52.354;6.584;2022-12-10T12:33:49;17.80;;;6.43;;
69748;SDS011;57019;52.354;6.584;2022-12-10T12:36:19;17.37;;;6.27;;
69748;SDS011;57019;52.354;6.584;2022-12-10T12:39:13;20.05;;;6.07;;
69748;SDS011;57019;52.354;6.584;2022-12-10T12:44:25;16.27;;;5.72;;
69748;SDS011;57019;52.354;6.584;2022-12-10T12:49:45;17.17;;;6.30;;
69748;SDS011;57019;52.354;6.584;2022-12-10T12:55:00;15.60;;;5.90;;
69748;SDS011;57019;52.354;6.584;2022-12-10T12:57:42;15.13;;;5.60;;
69748;SDS011;57019;52.354;6.584;2022-12-10T13:00:14;14.85;;;6.05;;
69748;SDS011;57019;52.354;6.584;2022-12-10T13:05:50;14.35;;;5.03;;
69748;SDS011;57019;52.354;6.584;2022-12-10T13:10:44;13.90;;;6.07;;
69748;SDS011;57019;52.354;6.584;2022-12-10T13:13:25;16.05;;;6.28;;
69748;SDS011;57019;52.354;6.584;2022-12-10T13:16:33;15.07;;;5.40;;
69748;SDS011;57019;52.354;6.584;2022-12-10T13:24:18;16.67;;;5.53;;
69748;SDS011;57019;52.354;6.584;2022-12-10T13:29:29;16.13;;;5.82;;
69748;SDS011;57019;52.354;6.584;2022-12-10T13:32:15;17.52;;;6.32;;
69748;SDS011;57019;52.354;6.584;2022-12-10T13:34:43;15.73;;;6.15;;
69748;SDS011;57019;52.354;6.584;2022-12-10T13:37:29;14.13;;;5.83;;
69748;SDS011;57019;52.354;6.584;2022-12-10T13:40:01;15.23;;;5.68;;
69748;SDS011;57019;52.354;6.584;2022-12-10T13:42:47;15.48;;;6.03;;
69748;SDS011;57019;52.354;6.584;2022-12-10T13:45:41;14.80;;;6.00;;
69748;SDS011;57019;52.354;6.584;2022-12-10T13:48:17;13.63;;;5.40;;
69748;SDS011;57019;52.354;6.584;2022-12-10T13:50:45;15.60;;;5.95;;
69748;SDS011;57019;52.354;6.584;2022-12-10T14:01:16;11.63;;;5.33;;
69748;SDS011;57019;52.354;6.584;2022-12-10T14:06:44;17.15;;;5.53;;
69748;SDS011;57019;52.354;6.584;2022-12-10T14:11:37;15.80;;;5.20;;
69748;SDS011;57019;52.354;6.584;2022-12-10T14:14:13;12.90;;;5.50;;
69748;SDS011;57019;52.354;6.584;2022-12-10T14:16:46;13.05;;;5.03;;
69748;SDS011;57019;52.354;6.584;2022-12-10T14:19:12;12.90;;;5.37;;
69748;SDS011;57019;52.354;6.584;2022-12-10T14:21:40;15.80;;;5.70;;
69748;SDS011;57019;52.354;6.584;2022-12-10T14:27:12;11.98;;;5.00;;
69748;SDS011;57019;52.354;6.584;2022-12-10T14:29:49;13.18;;;5.22;;
69748;SDS011;57019;52.354;6.584;2022-12-10T14:32:20;13.77;;;5.07;;
69748;SDS011;57019;52.354;6.584;2022-12-10T14:34:54;11.95;;;4.95;;
69748;SDS011;57019;52.354;6.584;2022-12-10T14:37:23;13.40;;;5.57;;
69748;SDS011;57019;52.354;6.584;2022-12-10T14:39:50;13.15;;;5.50;;
69748;SDS011;57019;52.354;6.584;2022-12-10T14:42:16;14.52;;;5.57;;
69748;SDS011;57019;52.354;6.584;2022-12-10T14:44:42;14.23;;;5.30;;
69748;SDS011;57019;52.354;6.584;2022-12-10T14:47:17;11.15;;;5.20;;
69748;SDS011;57019;52.354;6.584;2022-12-10T14:49:45;13.45;;;5.78;;
69748;SDS011;57019;52.354;6.584;2022-12-10T14:52:16;12.32;;;5.47;;
69748;SDS011;57019;52.354;6.584;2022-12-10T14:54:47;13.77;;;5.47;;
69748;SDS011;57019;52.354;6.584;2022-12-10T14:57:35;14.15;;;6.00;;
69748;SDS011;57019;52.354;6.584;2022-12-10T15:00:14;14.25;;;5.95;;
69748;SDS011;57019;52.354;6.584;2022-12-10T15:02:47;13.40;;;5.70;;
69748;SDS011;57019;52.354;6.584;2022-12-10T15:05:23;12.57;;;5.78;;
69748;SDS011;57019;52.354;6.584;2022-12-10T15:08:35;14.27;;;5.77;;
69748;SDS011;57019;52.354;6.584;2022-12-10T15:10:40;13.65;;;6.10;;
69748;SDS011;57019;52.354;6.584;2022-12-10T15:13:28;14.05;;;5.70;;
69748;SDS011;57019;52.354;6.584;2022-12-10T15:16:17;12.65;;;5.60;;
69748;SDS011;57019;52.354;6.584;2022-12-10T15:18:43;14.25;;;6.03;;
69748;SDS011;57019;52.354;6.584;2022-12-10T15:21:14;15.20;;;5.90;;
69748;SDS011;57019;52.354;6.584;2022-12-10T15:23:44;14.32;;;6.60;;
69748;SDS011;57019;52.354;6.584;2022-12-10T15:26:18;13.95;;;5.72;;
69748;SDS011;57019;52.354;6.584;2022-12-10T15:28:46;16.88;;;5.97;;
69748;SDS011;57019;52.354;6.584;2022-12-10T15:33:46;14.33;;;6.03;;
69748;SDS011;57019;52.354;6.584;2022-12-10T15:36:25;13.73;;;5.75;;
69748;SDS011;57019;52.354;6.584;2022-12-10T15:39:13;12.35;;;5.60;;
69748;SDS011;57019;52.354;6.584;2022-12-10T15:46:58;12.97;;;5.83;;
69748;SDS011;57019;52.354;6.584;2022-12-10T15:49:33;12.68;;;5.47;;
69748;SDS011;57019;52.354;6.584;2022-12-10T15:51:59;13.23;;;5.80;;
69748;SDS011;57019;52.354;6.584;2022-12-10T15:54:27;12.50;;;5.27;;
69748;SDS011;57019;52.354;6.584;2022-12-10T15:56:57;12.67;;;5.33;;
69748;SDS011;57019;52.354;6.584;2022-12-10T15:59:22;12.00;;;5.47;;
69748;SDS011;57019;52.354;6.584;2022-12-10T16:01:48;12.55;;;5.35;;
69748;SDS011;57019;52.354;6.584;2022-12-10T16:04:13;11.47;;;5.50;;
69748;SDS011;57019;52.354;6.584;2022-12-10T16:06:39;11.47;;;5.33;;
69748;SDS011;57019;52.354;6.584;2022-12-10T16:09:04;11.38;;;5.18;;
69748;SDS011;57019;52.354;6.584;2022-12-10T16:11:30;9.93;;;4.90;;
69748;SDS011;57019;52.354;6.584;2022-12-10T16:13:56;11.07;;;4.90;;
69748;SDS011;57019;52.354;6.584;2022-12-10T16:16:21;11.50;;;5.40;;
69748;SDS011;57019;52.354;6.584;2022-12-10T16:18:49;11.95;;;5.72;;
69748;SDS011;57019;52.354;6.584;2022-12-10T16:21:14;12.27;;;5.53;;
69748;SDS011;57019;52.354;6.584;2022-12-10T16:23:40;12.07;;;5.18;;
69748;SDS011;57019;52.354;6.584;2022-12-10T16:26:12;12.17;;;5.40;;
69748;SDS011;57019;52.354;6.584;2022-12-10T16:28:43;11.30;;;5.28;;
69748;SDS011;57019;52.354;6.584;2022-12-10T16:31:10;11.80;;;5.30;;
69748;SDS011;57019;52.354;6.584;2022-12-10T16:33:38;12.23;;;5.27;;
69748;SDS011;57019;52.354;6.584;2022-12-10T16:36:04;11.73;;;4.90;;
69748;SDS011;57019;52.354;6.584;2022-12-10T16:38:29;11.87;;;5.00;;
69748;SDS011;57019;52.354;6.584;2022-12-10T16:40:55;12.33;;;5.30;;
69748;SDS011;57019;52.354;6.584;2022-12-10T16:43:21;12.23;;;5.73;;
69748;SDS011;57019;52.354;6.584;2022-12-10T16:45:48;12.30;;;5.70;;
69748;SDS011;57019;52.354;6.584;2022-12-10T16:48:14;13.60;;;5.60;;
69748;SDS011;57019;52.354;6.584;2022-12-10T16:50:41;11.15;;;5.13;;
69748;SDS011;57019;52.354;6.584;2022-12-10T16:53:15;14.60;;;5.47;;